Time;durP1;ratioP1;P1;durP2;ratioP2;P2;SDS_P1;SDS_P2;PMS_P1;PMS_P2;Temp;Humidity;BMP_temperature;BMP_pressure;BME280_temperature;BME280_humidity;BME280_pressure;Samples;Min_cycle;Max_cycle;Signal;HPM_P1;HPM_P2
2022/07/30 00:01:33;;;;;;;2.70;1.20;;;;;;;19.53;47.54;100649.92;105861;1273;22591;-74
2022/07/30 00:04:02;;;;;;;2.30;1.30;;;;;;;19.51;47.70;100648.41;105776;1274;22531;-78
2022/07/30 00:06:29;;;;;;;1.50;1.20;;;;;;;19.49;47.71;100651.90;105708;1276;22543;-80
2022/07/30 00:08:56;;;;;;;1.60;1.00;;;;;;;19.49;47.68;100653.67;105862;1273;24427;-78
2022/07/30 00:11:24;;;;;;;2.20;1.20;;;;;;;19.46;47.77;100654.68;105835;1273;24306;-80
2022/07/30 00:13:54;;;;;;;1.30;1.10;;;;;;;19.43;47.80;100656.42;105783;1274;26637;-76
2022/07/30 00:16:21;;;;;;;9.00;1.70;;;;;;;19.41;47.92;100654.33;105979;1273;22525;-77
2022/07/30 00:18:48;;;;;;;3.70;1.20;;;;;;;19.43;48.16;100648.02;105746;1273;22565;-75
2022/07/30 00:21:15;;;;;;;3.40;1.40;;;;;;;19.44;48.31;100648.34;105718;1273;22561;-77
2022/07/30 00:24:01;;;;;;;4.00;1.40;;;;;;;19.42;48.36;100645.92;105698;1273;22535;-78
2022/07/30 00:26:28;;;;;;;3.20;1.40;;;;;;;19.42;48.50;100643.77;105827;1274;24397;-76
2022/07/30 00:28:55;;;;;;;4.20;1.60;;;;;;;19.40;48.61;100639.05;106107;1273;24602;-77
2022/07/30 00:31:22;;;;;;;5.20;1.30;;;;;;;19.37;48.70;100634.89;105949;1273;24451;-77
2022/07/30 00:33:49;;;;;;;3.60;1.80;;;;;;;19.32;48.78;100630.12;106019;1273;22811;-74
2022/07/30 00:36:16;;;;;;;2.20;1.20;;;;;;;19.31;49.06;100622.09;105834;1273;25581;-76
2022/07/30 00:38:44;;;;;;;2.00;1.50;;;;;;;19.30;49.24;100629.64;105854;1273;22568;-78
2022/07/30 00:41:11;;;;;;;3.30;1.10;;;;;;;19.28;49.25;100624.73;105773;1273;22540;-78
2022/07/30 00:43:38;;;;;;;4.80;1.50;;;;;;;19.23;49.32;100618.34;105853;1273;24268;-77
2022/07/30 00:46:05;;;;;;;2.50;1.30;;;;;;;19.13;49.63;100614.64;105717;1273;22541;-76
2022/07/30 00:48:32;;;;;;;1.60;1.40;;;;;;;19.08;49.73;100614.80;105998;1273;25459;-78
2022/07/30 00:50:59;;;;;;;1.80;1.30;;;;;;;19.06;49.94;100614.37;105665;1273;24299;-77
2022/07/30 00:53:26;;;;;;;2.50;1.60;;;;;;;19.04;50.00;100614.42;105759;1273;25237;-78
2022/07/30 00:55:53;;;;;;;1.80;1.30;;;;;;;19.03;50.00;100607.32;105719;1273;25523;-76
2022/07/30 00:58:20;;;;;;;3.40;1.40;;;;;;;19.02;50.08;100604.35;106000;1273;22623;-77
2022/07/30 01:00:47;;;;;;;2.70;1.80;;;;;;;19.02;50.17;100605.78;105815;1273;22525;-77
2022/07/30 01:03:14;;;;;;;2.70;1.20;;;;;;;18.99;50.24;100603.02;105906;1273;22528;-77
2022/07/30 01:05:41;;;;;;;1.30;1.20;;;;;;;18.97;50.36;100597.74;105806;1273;24222;-77
2022/07/30 01:08:08;;;;;;;3.20;1.50;;;;;;;18.98;50.45;100599.86;105857;1273;24334;-79
2022/07/30 01:10:35;;;;;;;2.60;1.40;;;;;;;18.95;50.48;100595.34;105836;1273;22747;-77
2022/07/30 01:13:02;;;;;;;5.60;1.40;;;;;;;18.95;50.71;100599.27;105965;1273;24277;-78
2022/07/30 01:15:31;;;;;;;4.60;1.30;;;;;;;18.93;50.71;100599.15;105865;1273;25565;-79
2022/07/30 01:18:02;;;;;;;2.90;1.60;;;;;;;18.88;50.86;100592.96;105916;1273;22574;-76
2022/07/30 01:20:33;;;;;;;3.40;1.20;;;;;;;18.86;50.95;100587.52;105823;1273;25334;-77
2022/07/30 01:23:11;;;;;;;3.30;1.70;;;;;;;18.84;51.15;100583.85;105809;1273;22531;-75
2022/07/30 01:25:50;;;;;;;4.90;1.30;;;;;;;18.82;51.27;100577.14;105842;1273;25261;-79
2022/07/30 01:28:22;;;;;;;3.40;1.30;;;;;;;18.83;51.37;100577.12;105880;1273;22543;-77
2022/07/30 01:30:51;;;;;;;3.00;1.60;;;;;;;18.85;51.45;100581.14;105805;1273;22564;-77
2022/07/30 01:33:21;;;;;;;2.20;1.60;;;;;;;18.81;51.57;100578.41;105933;1273;25565;-78
2022/07/30 01:35:51;;;;;;;3.40;1.50;;;;;;;18.85;51.67;100580.95;105759;1273;23878;-76
2022/07/30 01:38:21;;;;;;;3.40;1.40;;;;;;;18.84;51.71;100580.98;105820;1273;23421;-77
2022/07/30 01:40:53;;;;;;;2.20;1.50;;;;;;;18.83;51.85;100583.70;105589;1273;22640;-76
2022/07/30 01:43:22;;;;;;;6.90;1.20;;;;;;;18.84;51.98;100577.60;105807;1273;22551;-76
2022/07/30 01:45:51;;;;;;;2.70;1.50;;;;;;;18.83;52.06;100575.66;105791;1273;25509;-77
2022/07/30 01:48:22;;;;;;;5.10;1.50;;;;;;;18.82;52.19;100571.27;105808;1273;24287;-75
2022/07/30 01:50:53;;;;;;;2.80;1.70;;;;;;;18.85;52.10;100561.52;105763;1274;22553;-76
2022/07/30 01:53:25;;;;;;;1.60;1.40;;;;;;;18.84;52.21;100556.89;105746;1275;22601;-76
2022/07/30 01:55:54;;;;;;;2.80;1.30;;;;;;;18.80;52.13;100548.67;105657;1275;25375;-77
2022/07/30 01:58:26;;;;;;;2.30;1.40;;;;;;;18.79;52.17;100541.59;105820;1273;22548;-77
2022/07/30 02:00:59;;;;;;;2.20;1.40;;;;;;;18.77;52.27;100543.23;105940;1273;23000;-75
2022/07/30 02:03:26;;;;;;;5.50;1.60;;;;;;;18.75;52.33;100536.02;105618;1273;22803;-75
2022/07/30 02:06:01;;;;;;;1.30;1.20;;;;;;;18.77;52.37;100538.42;105509;1275;22544;-76
2022/07/30 02:08:40;;;;;;;3.50;1.30;;;;;;;18.75;52.56;100542.06;105987;1275;22544;-77
2022/07/30 02:11:11;;;;;;;1.50;1.40;;;;;;;18.71;52.77;100538.15;105746;1274;22528;-77
2022/07/30 02:13:56;;;;;;;5.00;1.50;;;;;;;18.74;52.81;100541.94;105753;1274;22553;-77
2022/07/30 02:16:29;;;;;;;2.20;1.60;;;;;;;18.70;52.98;100538.34;105633;1275;25523;-78
2022/07/30 02:19:11;;;;;;;5.40;1.40;;;;;;;18.71;53.04;100535.65;105715;1274;23051;-76
2022/07/30 02:21:44;;;;;;;4.50;1.70;;;;;;;18.71;53.27;100533.85;105862;1273;22672;-77
2022/07/30 02:24:27;;;;;;;9.50;1.60;;;;;;;18.69;53.23;100531.98;105762;1274;26356;-77
2022/07/30 02:27:03;;;;;;;1.90;1.60;;;;;;;18.67;53.18;100534.21;106007;1273;25634;-77
2022/07/30 02:29:33;;;;;;;2.20;1.30;;;;;;;18.65;53.42;100531.24;105756;1274;22596;-78
2022/07/30 02:32:05;;;;;;;4.40;1.50;;;;;;;18.65;53.55;100528.39;105963;1273;22550;-76
2022/07/30 02:34:35;;;;;;;5.80;1.20;;;;;;;18.66;53.58;100523.19;106004;1273;22553;-80
2022/07/30 02:37:04;;;;;;;2.20;1.30;;;;;;;18.71;53.59;100522.10;105903;1273;25250;-79
2022/07/30 02:39:35;;;;;;;2.50;1.10;;;;;;;18.73;53.53;100517.73;105782;1273;22791;-78
2022/07/30 02:42:03;;;;;;;2.20;1.30;;;;;;;18.75;53.44;100514.44;105775;1273;22531;-77
2022/07/30 02:44:32;;;;;;;2.80;1.20;;;;;;;18.74;53.43;100505.55;105621;1276;22565;-79
2022/07/30 02:47:01;;;;;;;1.90;1.10;;;;;;;18.73;53.64;100507.92;105823;1273;22619;-75
2022/07/30 02:49:50;;;;;;;5.90;1.70;;;;;;;18.73;53.64;100502.74;105735;1273;22554;-77
2022/07/30 02:52:18;;;;;;;2.20;1.30;;;;;;;18.73;53.58;100495.62;105604;1276;22543;-77
2022/07/30 02:54:48;;;;;;;2.10;1.40;;;;;;;18.75;53.74;100493.58;105762;1274;25523;-74
2022/07/30 02:57:18;;;;;;;4.40;1.30;;;;;;;18.73;53.71;100491.67;105521;1273;22595;-79
2022/07/30 02:59:46;;;;;;;3.20;1.20;;;;;;;18.74;53.78;100490.40;105763;1273;25268;-77
2022/07/30 03:02:15;;;;;;;1.80;1.10;;;;;;;18.72;53.86;100489.42;105808;1273;22617;-79
2022/07/30 03:04:43;;;;;;;2.40;1.10;;;;;;;18.69;53.92;100483.29;105978;1274;22554;-79
2022/07/30 03:07:15;;;;;;;2.50;1.10;;;;;;;18.67;54.00;100482.32;106014;1273;25317;-78
2022/07/30 03:09:43;;;;;;;2.50;1.40;;;;;;;18.67;54.05;100480.34;105861;1273;24298;-80
2022/07/30 03:12:18;;;;;;;4.70;1.10;;;;;;;18.66;54.15;100478.07;105777;1273;22532;-78
2022/07/30 03:14:45;;;;;;;2.60;1.30;;;;;;;18.67;54.11;100476.96;105738;1273;22708;-77
2022/07/30 03:17:15;;;;;;;2.50;1.50;;;;;;;18.66;54.35;100473.96;105819;1273;22551;-75
2022/07/30 03:19:44;;;;;;;3.60;1.30;;;;;;;18.64;54.36;100476.02;105820;1273;24306;-75
2022/07/30 03:22:16;;;;;;;2.60;1.20;;;;;;;18.64;54.45;100480.45;106082;1273;22690;-77
2022/07/30 03:24:47;;;;;;;3.10;1.50;;;;;;;18.63;54.43;100479.08;105892;1273;22557;-79
2022/07/30 03:27:15;;;;;;;2.00;1.10;;;;;;;18.63;54.57;100481.05;105773;1273;22790;-79
2022/07/30 03:29:44;;;;;;;2.30;1.40;;;;;;;18.63;54.55;100479.29;105807;1273;25372;-76
2022/07/30 03:32:12;;;;;;;3.40;1.50;;;;;;;18.57;54.52;100472.18;106082;1273;24367;-78
2022/07/30 03:34:42;;;;;;;2.70;1.60;;;;;;;18.60;54.55;100472.44;105756;1273;24176;-79
2022/07/30 03:37:13;;;;;;;3.40;1.60;;;;;;;18.57;54.67;100477.38;105737;1276;22541;-77
2022/07/30 03:39:40;;;;;;;2.90;1.60;;;;;;;18.56;54.64;100473.46;105821;1275;22554;-78
2022/07/30 03:42:08;;;;;;;2.90;1.60;;;;;;;18.53;54.77;100473.92;105881;1273;24303;-78
2022/07/30 03:44:37;;;;;;;2.40;1.40;;;;;;;18.52;54.94;100471.88;105833;1275;24437;-79
2022/07/30 03:47:06;;;;;;;2.80;2.00;;;;;;;18.51;54.97;100466.55;105830;1273;22560;-75
2022/07/30 03:49:39;;;;;;;1.50;1.30;;;;;;;18.49;55.05;100464.86;106050;1273;22553;-79
2022/07/30 03:52:07;;;;;;;1.70;1.40;;;;;;;18.49;55.19;100462.02;105752;1274;22560;-75
2022/07/30 03:54:35;;;;;;;2.00;1.30;;;;;;;18.48;55.11;100468.27;105821;1274;22657;-80
2022/07/30 03:57:22;;;;;;;2.50;1.30;;;;;;;18.46;55.19;100474.77;105797;1275;24205;-79
2022/07/30 03:59:50;;;;;;;3.40;1.70;;;;;;;18.43;55.29;100472.92;105788;1273;22522;-78
2022/07/30 04:02:19;;;;;;;2.90;1.60;;;;;;;18.42;55.39;100477.05;105760;1273;24244;-77
2022/07/30 04:05:16;;;;;;;3.50;1.40;;;;;;;18.40;55.48;100481.10;105932;1273;22689;-77
2022/07/30 04:07:43;;;;;;;3.80;1.30;;;;;;;18.40;55.57;100488.04;105720;1273;22625;-79
2022/07/30 04:10:13;;;;;;;2.80;1.50;;;;;;;18.41;55.63;100493.15;105814;1274;22534;-75
2022/07/30 04:12:59;;;;;;;4.00;1.40;;;;;;;18.42;55.71;100494.38;105845;1275;25668;-77
2022/07/30 04:15:28;;;;;;;2.20;1.70;;;;;;;18.43;55.72;100492.55;105778;1273;22595;-76
2022/07/30 04:18:17;;;;;;;3.10;1.60;;;;;;;18.44;55.79;100490.36;105700;1273;24260;-78
2022/07/30 04:20:48;;;;;;;4.80;1.30;;;;;;;18.43;55.79;100492.90;105812;1273;25641;-78
2022/07/30 04:23:15;;;;;;;3.00;1.80;;;;;;;18.42;55.99;100492.56;105897;1275;22635;-78
2022/07/30 04:25:43;;;;;;;2.80;2.10;;;;;;;18.44;55.95;100494.83;105954;1273;24596;-81
2022/07/30 04:28:10;;;;;;;3.40;1.60;;;;;;;18.47;56.09;100493.27;105589;1278;25071;-78
2022/07/30 04:30:37;;;;;;;4.60;1.70;;;;;;;18.53;56.11;100491.96;105489;1279;22541;-75
2022/07/30 04:33:04;;;;;;;5.10;1.60;;;;;;;18.57;56.02;100486.81;105577;1281;26524;-79
2022/07/30 04:35:51;;;;;;;2.90;1.50;;;;;;;18.63;55.94;100481.05;105299;1279;22544;-78
2022/07/30 04:38:24;;;;;;;2.80;1.40;;;;;;;18.67;55.91;100477.68;105431;1278;25183;-77
2022/07/30 04:40:51;;;;;;;2.20;1.40;;;;;;;18.71;55.90;100471.45;105488;1281;26488;-79
2022/07/30 04:43:19;;;;;;;2.30;1.30;;;;;;;18.75;55.86;100473.58;105532;1279;22548;-76
2022/07/30 04:45:46;;;;;;;6.10;1.50;;;;;;;18.78;55.83;100469.89;105348;1276;22549;-75
2022/07/30 04:48:13;;;;;;;6.30;1.80;;;;;;;18.79;55.89;100466.64;105843;1274;22542;-79
2022/07/30 04:51:03;;;;;;;4.60;1.90;;;;;;;18.83;55.63;100466.48;105890;1274;24988;-81
2022/07/30 04:53:32;;;;;;;3.80;1.70;;;;;;;18.85;55.63;100466.05;105819;1276;22547;-77
2022/07/30 04:56:01;;;;;;;2.70;1.70;;;;;;;18.86;55.65;100461.55;105844;1276;22560;-77
2022/07/30 04:58:30;;;;;;;4.50;1.40;;;;;;;18.84;55.64;100460.17;105936;1276;23027;-76
2022/07/30 05:00:59;;;;;;;3.20;1.40;;;;;;;18.87;55.68;100469.38;105745;1276;22535;-75
2022/07/30 05:03:30;;;;;;;3.20;1.50;;;;;;;18.87;55.78;100470.62;106066;1276;25265;-75
2022/07/30 05:05:59;;;;;;;5.80;1.50;;;;;;;18.88;55.72;100467.50;105942;1276;22700;-77
2022/07/30 05:08:29;;;;;;;3.40;1.40;;;;;;;18.91;55.66;100466.83;106112;1275;22557;-76
2022/07/30 05:10:59;;;;;;;3.50;1.60;;;;;;;18.91;55.74;100462.20;105883;1276;22591;-77
2022/07/30 05:13:26;;;;;;;4.50;1.30;;;;;;;18.96;55.76;100456.48;105754;1274;22529;-79
2022/07/30 05:16:01;;;;;;;;;;;;;;;18.97;55.71;100459.46;106066;1274;22518;-77
2022/07/30 05:18:28;;;;;;;2.10;1.20;;;;;;;18.97;55.64;100460.16;105868;1275;22531;-76
2022/07/30 05:20:55;;;;;;;1.60;1.50;;;;;;;18.99;55.65;100464.00;105821;1274;24073;-76
2022/07/30 05:23:29;;;;;;;4.00;1.50;;;;;;;19.01;55.67;100464.66;105705;1274;22539;-74
2022/07/30 05:26:10;;;;;;;2.70;1.20;;;;;;;19.02;55.70;100463.16;105726;1276;22547;-75
2022/07/30 05:28:41;;;;;;;2.30;1.30;;;;;;;19.02;55.85;100459.61;105816;1276;22544;-76
2022/07/30 05:31:11;;;;;;;1.90;1.20;;;;;;;19.03;55.82;100458.67;105826;1274;25584;-74
2022/07/30 05:33:38;;;;;;;3.40;1.60;;;;;;;19.07;55.65;100456.54;105580;1275;22787;-73
2022/07/30 05:36:10;;;;;;;2.70;1.30;;;;;;;19.06;55.68;100457.80;105716;1274;22780;-75
2022/07/30 05:38:37;;;;;;;3.70;1.60;;;;;;;19.06;55.87;100454.27;105578;1276;22534;-77
2022/07/30 05:41:26;;;;;;;1.90;1.30;;;;;;;19.06;55.86;100455.48;105645;1276;25542;-76
2022/07/30 05:44:12;;;;;;;2.10;1.20;;;;;;;19.04;55.86;100457.91;105814;1275;22531;-75
2022/07/30 05:46:39;;;;;;;5.20;1.80;;;;;;;19.00;56.00;100460.06;105769;1276;22553;-77
2022/07/30 05:49:07;;;;;;;4.60;1.60;;;;;;;18.98;56.33;100465.48;105793;1275;22553;-76
2022/07/30 05:51:34;;;;;;;2.00;1.20;;;;;;;18.97;56.36;100463.77;105656;1276;22635;-76
2022/07/30 05:54:01;;;;;;;2.90;1.50;;;;;;;18.94;56.53;100458.52;105946;1275;25471;-75
2022/07/30 05:56:50;;;;;;;9.10;7.30;;;;;;;18.94;56.72;100450.84;105686;1274;24302;-77
2022/07/30 05:59:28;;;;;;;7.40;2.40;;;;;;;18.89;56.77;100441.57;106026;1275;22697;-75
2022/07/30 06:02:05;;;;;;;3.00;1.60;;;;;;;18.91;56.93;100447.07;105565;1276;22528;-77
2022/07/30 06:04:52;;;;;;;4.90;1.80;;;;;;;18.89;56.95;100448.39;105603;1276;22570;-76
2022/07/30 06:07:20;;;;;;;5.90;2.10;;;;;;;18.89;56.95;100453.19;105573;1275;22686;-74
2022/07/30 06:09:47;;;;;;;5.30;1.80;;;;;;;18.91;56.88;100449.39;105801;1276;22543;-76
2022/07/30 06:12:13;;;;;;;5.20;1.40;;;;;;;18.93;56.93;100445.36;105448;1276;22532;-72
2022/07/30 06:14:41;;;;;;;3.90;1.90;;;;;;;18.95;56.81;100442.23;105479;1276;22715;-75
2022/07/30 06:17:10;;;;;;;10.00;1.70;;;;;;;18.97;57.23;100443.23;105739;1275;22577;-77
2022/07/30 06:20:04;;;;;;;4.60;1.50;;;;;;;18.99;57.66;100449.55;105616;1275;24226;-76
2022/07/30 06:22:38;;;;;;;3.50;1.80;;;;;;;19.02;58.10;100448.01;105514;1274;22724;-77
2022/07/30 06:25:09;;;;;;;4.00;2.30;;;;;;;19.03;58.23;100452.23;105762;1275;22557;-77
2022/07/30 06:27:38;;;;;;;2.50;1.80;;;;;;;19.06;58.35;100451.24;105656;1276;25421;-77
2022/07/30 06:30:07;;;;;;;2.40;1.50;;;;;;;19.09;58.39;100453.80;105612;1276;26830;-77
2022/07/30 06:32:35;;;;;;;3.00;1.70;;;;;;;19.09;58.60;100445.94;105692;1275;22550;-76
2022/07/30 06:35:03;;;;;;;2.20;1.70;;;;;;;19.12;58.70;100444.75;105806;1275;22633;-75
2022/07/30 06:37:30;;;;;;;3.20;2.00;;;;;;;19.13;58.45;100444.51;105962;1273;24424;-78
2022/07/30 06:40:20;;;;;;;3.40;1.90;;;;;;;19.19;58.45;100441.98;105755;1273;278609;-76
2022/07/30 06:42:58;;;;;;;2.00;1.40;;;;;;;19.22;58.31;100437.89;105885;1274;22563;-76
2022/07/30 06:45:46;;;;;;;5.50;1.60;;;;;;;19.29;58.22;100434.20;105760;1273;22556;-75
2022/07/30 06:48:23;;;;;;;3.30;1.90;;;;;;;19.35;58.11;100434.44;105875;1275;22580;-75
2022/07/30 06:50:51;;;;;;;7.30;1.80;;;;;;;19.43;58.11;100433.54;105778;1276;22577;-76
2022/07/30 06:53:18;;;;;;;4.90;1.50;;;;;;;19.47;58.03;100436.59;105787;1275;22662;-74
2022/07/30 06:56:05;;;;;;;5.10;2.00;;;;;;;19.52;57.80;100439.61;105549;1275;22552;-76
2022/07/30 06:58:40;;;;;;;3.50;1.80;;;;;;;19.55;57.74;100440.69;105809;1273;22548;-78
2022/07/30 07:01:26;;;;;;;7.40;1.50;;;;;;;19.55;57.77;100439.08;106104;1273;22555;-77
2022/07/30 07:03:53;;;;;;;2.90;1.50;;;;;;;19.56;57.96;100436.73;105984;1273;22602;-75
2022/07/30 07:06:20;;;;;;;4.40;1.70;;;;;;;19.54;57.87;100429.48;106129;1273;25539;-78
2022/07/30 07:08:47;;;;;;;3.40;1.90;;;;;;;19.52;57.60;100422.63;106215;1276;23144;-78
2022/07/30 07:11:17;;;;;;;2.50;1.60;;;;;;;19.54;57.50;100417.72;106026;1276;22563;-77
2022/07/30 07:13:52;;;;;;;4.70;1.70;;;;;;;19.58;57.40;100417.54;105657;1278;22561;-78
2022/07/30 07:16:31;;;;;;;5.40;1.70;;;;;;;19.59;57.62;100420.73;106019;1276;22544;-79
2022/07/30 07:19:03;;;;;;;4.10;1.80;;;;;;;19.60;57.69;100421.90;105951;1273;22547;-80
2022/07/30 07:21:30;;;;;;;5.00;1.70;;;;;;;19.61;57.82;100416.30;106062;1273;22531;-78
2022/07/30 07:23:59;;;;;;;3.20;1.70;;;;;;;19.64;57.73;100408.48;105919;1273;25246;-74
2022/07/30 07:27:06;;;;;;;2.80;1.40;;;;;;;19.66;57.74;100403.55;105920;1273;22613;-76
2022/07/30 07:29:43;;;;;;;4.40;1.60;;;;;;;19.70;57.77;100399.30;105962;1274;22557;-76
2022/07/30 07:32:30;;;;;;;4.00;1.80;;;;;;;19.75;57.92;100394.95;105884;1276;22688;-79
2022/07/30 07:34:57;;;;;;;2.80;1.60;;;;;;;19.78;57.90;100392.45;105934;1276;22548;-78
2022/07/30 07:37:25;;;;;;;4.20;1.70;;;;;;;19.83;57.74;100393.51;105998;1276;22630;-78
2022/07/30 07:39:51;;;;;;;3.40;1.50;;;;;;;19.85;57.62;100395.92;105790;1274;22543;-81
2022/07/30 07:42:19;;;;;;;4.00;1.90;;;;;;;19.86;57.65;100396.20;105732;1273;25252;-79
2022/07/30 07:44:46;;;;;;;4.40;1.80;;;;;;;19.89;57.48;100392.48;105969;1274;24513;-78
2022/07/30 07:47:13;;;;;;;7.70;2.60;;;;;;;20.00;57.53;100402.17;105812;1277;22987;-78
2022/07/30 07:49:44;;;;;;;3.90;1.80;;;;;;;20.09;57.47;100401.41;106114;1274;22558;-76
2022/07/30 07:52:11;;;;;;;5.50;2.00;;;;;;;20.18;57.34;100399.17;105906;1275;24397;-75
2022/07/30 07:54:38;;;;;;;4.00;1.80;;;;;;;20.28;57.15;100397.98;105916;1273;22550;-76
2022/07/30 07:57:06;;;;;;;4.60;1.90;;;;;;;20.37;57.06;100389.86;105898;1273;22534;-75
2022/07/30 07:59:39;;;;;;;5.70;1.70;;;;;;;20.45;56.84;100389.61;106198;1273;25371;-76
2022/07/30 08:02:32;;;;;;;3.40;1.70;;;;;;;20.60;56.63;100390.80;105745;1273;25318;-78
2022/07/30 08:05:05;;;;;;;4.20;2.20;;;;;;;20.71;56.65;100383.33;105950;1276;22544;-74
2022/07/30 08:07:44;;;;;;;2.70;1.60;;;;;;;20.80;56.20;100377.27;105628;1273;22559;-75
2022/07/30 08:10:31;;;;;;;4.60;1.70;;;;;;;20.94;56.22;100381.44;105741;1275;22482;-76
2022/07/30 08:13:10;;;;;;;3.20;2.20;;;;;;;21.05;56.22;100383.70;105915;1275;22543;-78
2022/07/30 08:16:16;;;;;;;4.20;1.60;;;;;;;21.16;55.95;100384.40;105907;1273;22882;-77
2022/07/30 08:19:02;;;;;;;3.40;1.80;;;;;;;21.24;55.88;100385.05;105825;1274;22575;-83
2022/07/30 08:21:33;;;;;;;7.20;1.90;;;;;;;21.31;55.60;100383.76;105817;1273;22566;-80
2022/07/30 08:24:00;;;;;;;9.30;2.00;;;;;;;21.40;55.83;100384.73;105894;1274;22539;-80
2022/07/30 08:26:28;;;;;;;4.60;1.80;;;;;;;21.48;55.49;100373.37;105833;1273;25249;-75
2022/07/30 08:28:55;;;;;;;6.20;2.00;;;;;;;21.58;55.45;100371.91;105786;1274;25250;-79
2022/07/30 08:31:22;;;;;;;6.00;1.70;;;;;;;21.69;55.17;100370.04;105941;1274;22581;-82
2022/07/30 08:33:49;;;;;;;5.90;2.00;;;;;;;21.80;55.06;100368.20;105754;1275;22535;-83
2022/07/30 08:36:17;;;;;;;4.60;1.40;;;;;;;21.92;54.84;100363.41;105903;1273;25527;-78
2022/07/30 08:38:48;;;;;;;3.00;1.90;;;;;;;22.05;54.68;100361.26;106130;1275;25451;-76
2022/07/30 08:41:19;;;;;;;5.10;1.60;;;;;;;22.15;54.31;100361.21;105871;1275;25371;-78
2022/07/30 08:43:49;;;;;;;6.40;1.60;;;;;;;22.24;54.03;100363.55;105710;1276;22577;-76
2022/07/30 08:46:18;;;;;;;3.80;1.80;;;;;;;22.29;53.92;100357.57;105951;1273;22563;-81
2022/07/30 08:48:51;;;;;;;2.10;1.90;;;;;;;22.33;53.79;100353.73;105837;1275;23964;-79
2022/07/30 08:51:19;;;;;;;2.00;1.70;;;;;;;22.35;53.74;100356.65;105637;1276;24312;-80
2022/07/30 08:54:05;;;;;;;;;;;;;;;22.40;53.87;100359.22;105984;1273;22543;-83
2022/07/30 08:56:33;;;;;;;7.20;2.00;;;;;;;22.44;53.98;100356.13;105644;1273;22578;-75
2022/07/30 08:59:00;;;;;;;6.10;2.00;;;;;;;22.51;53.81;100354.46;105821;1273;22838;-80
2022/07/30 09:01:27;;;;;;;4.90;2.00;;;;;;;22.61;53.72;100351.19;105890;1275;24079;-75
2022/07/30 09:03:55;;;;;;;6.10;2.10;;;;;;;22.69;53.53;100352.86;105824;1273;25265;-83
2022/07/30 09:06:24;;;;;;;2.60;1.60;;;;;;;22.77;53.74;100351.86;105892;1273;25250;-80
2022/07/30 09:08:51;;;;;;;1.80;1.70;;;;;;;22.86;53.63;100354.52;105862;1273;25486;-77
2022/07/30 09:11:18;;;;;;;5.90;2.30;;;;;;;22.94;53.41;100355.14;105944;1273;22548;-77
2022/07/30 09:13:45;;;;;;;4.70;1.90;;;;;;;23.04;53.38;100355.61;105841;1274;24307;-82
2022/07/30 09:16:23;;;;;;;11.40;2.40;;;;;;;23.15;53.08;100351.48;106032;1273;22666;-78
2022/07/30 09:18:53;;;;;;;2.30;1.70;;;;;;;23.29;53.02;100349.54;105884;1274;25330;-79
2022/07/30 09:21:23;;;;;;;4.30;1.80;;;;;;;23.40;52.90;100339.58;105985;1273;25429;-78
2022/07/30 09:24:08;;;;;;;2.80;1.90;;;;;;;23.57;52.68;100341.91;105881;1274;22546;-81
2022/07/30 09:27:00;;;;;;;4.50;1.70;;;;;;;23.84;52.43;100341.23;105766;1273;22545;-77
2022/07/30 09:29:57;;;;;;;7.40;1.90;;;;;;;23.97;52.02;100333.95;105993;1273;22730;-82
2022/07/30 09:32:51;;;;;;;3.70;1.60;;;;;;;24.07;51.76;100341.17;106041;1273;24264;-75
2022/07/30 09:35:24;;;;;;;4.90;1.80;;;;;;;24.17;51.66;100342.34;105845;1274;22618;-78
2022/07/30 09:38:10;;;;;;;7.20;1.80;;;;;;;24.28;51.53;100343.23;105868;1273;23962;-79
2022/07/30 09:40:57;;;;;;;4.60;1.60;;;;;;;24.39;51.20;100345.71;105821;1275;22696;-77
2022/07/30 09:43:55;;;;;;;6.90;1.80;;;;;;;24.41;50.89;100346.66;105892;1274;22535;-76
2022/07/30 09:46:46;;;;;;;4.40;2.00;;;;;;;24.39;50.85;100344.64;106141;1274;22593;-76
2022/07/30 09:49:21;;;;;;;2.60;1.70;;;;;;;24.36;50.67;100342.18;106031;1273;25470;-80
2022/07/30 09:51:49;;;;;;;3.70;1.90;;;;;;;24.27;50.69;100340.45;105892;1275;22547;-79
2022/07/30 09:55:00;;;;;;;4.80;1.90;;;;;;;24.21;50.80;100335.77;105874;1273;22633;-74
2022/07/30 09:57:29;;;;;;;6.80;1.90;;;;;;;24.12;50.74;100333.09;105847;1273;24240;-78
2022/07/30 10:00:18;;;;;;;8.60;1.80;;;;;;;24.08;50.59;100324.73;105868;1274;24452;-80
2022/07/30 10:03:24;;;;;;;4.40;1.60;;;;;;;24.07;50.89;100326.95;105913;1274;22564;-78
2022/07/30 10:06:35;;;;;;;3.60;1.60;;;;;;;24.04;50.40;100320.52;106088;1274;24304;-79
2022/07/30 10:09:34;;;;;;;4.50;1.70;;;;;;;23.94;50.47;100323.71;105884;1275;22536;-80
2022/07/30 10:12:05;;;;;;;4.90;1.50;;;;;;;23.88;50.71;100329.49;105908;1274;22738;-83
2022/07/30 10:14:43;;;;;;;4.40;1.40;;;;;;;23.81;50.51;100336.21;106072;1275;25425;-77
2022/07/30 10:17:14;;;;;;;4.70;2.10;;;;;;;23.75;50.44;100335.14;105521;1280;25324;-78
2022/07/30 10:19:51;;;;;;;2.30;1.50;;;;;;;23.71;50.36;100339.38;105337;1281;25481;-80
2022/07/30 10:22:40;;;;;;;5.70;1.90;;;;;;;23.69;50.34;100344.94;105604;1281;22625;-75
2022/07/30 10:25:26;;;;;;;4.30;1.60;;;;;;;23.66;50.70;100344.95;105481;1279;22561;-76
2022/07/30 10:28:24;;;;;;;4.30;1.80;;;;;;;23.61;50.38;100347.40;105105;1282;23964;-76
2022/07/30 10:30:53;;;;;;;5.00;1.50;;;;;;;23.56;50.58;100346.83;105650;1277;25354;-75
2022/07/30 10:33:24;;;;;;;6.80;2.00;;;;;;;23.49;50.70;100342.59;105533;1281;22569;-75
2022/07/30 10:36:06;;;;;;;2.60;1.50;;;;;;;23.39;51.29;100343.58;105752;1275;22553;-75
2022/07/30 10:38:37;;;;;;;5.20;1.60;;;;;;;23.34;51.59;100340.30;105903;1274;22534;-73
2022/07/30 10:41:45;;;;;;;3.80;1.80;;;;;;;23.27;52.21;100338.56;105821;1274;22560;-78
2022/07/30 10:44:29;;;;;;;4.50;1.90;;;;;;;23.21;53.09;100340.70;105975;1274;24711;-77
2022/07/30 10:47:05;;;;;;;3.50;1.90;;;;;;;23.18;53.00;100343.61;105380;1279;25261;-77
2022/07/30 10:49:34;;;;;;;2.40;1.80;;;;;;;23.11;53.15;100345.86;105388;1281;25344;-74
2022/07/30 10:52:09;;;;;;;4.00;1.80;;;;;;;23.04;53.51;100347.86;105184;1281;22570;-75
2022/07/30 10:54:41;;;;;;;6.00;1.90;;;;;;;23.00;53.71;100348.14;105372;1281;24182;-75
2022/07/30 10:57:16;;;;;;;3.50;2.40;;;;;;;22.94;53.93;100347.21;105431;1281;24326;-76
2022/07/30 11:00:00;;;;;;;5.80;1.80;;;;;;;22.94;54.86;100351.02;105377;1282;25263;-75
2022/07/30 11:02:33;;;;;;;4.70;2.00;;;;;;;22.94;54.95;100352.29;105416;1281;22563;-78
2022/07/30 11:05:17;;;;;;;5.20;2.20;;;;;;;22.91;55.21;100352.08;105531;1277;22835;-76
2022/07/30 11:08:48;;;;;;;8.00;2.70;;;;;;;22.89;55.26;100355.46;105814;1274;25366;-76
2022/07/30 11:11:19;;;;;;;4.80;2.60;;;;;;;22.89;55.65;100355.24;105749;1275;22746;-75
2022/07/30 11:14:06;;;;;;;3.90;2.10;;;;;;;22.90;55.64;100351.83;105804;1274;24451;-76
2022/07/30 11:16:33;;;;;;;4.70;1.90;;;;;;;22.91;55.78;100351.04;105997;1274;25252;-75
2022/07/30 11:19:00;;;;;;;4.90;2.00;;;;;;;22.87;55.76;100347.48;105325;1278;25535;-76
2022/07/30 11:22:27;;;;;;;3.50;1.90;;;;;;;22.83;56.25;100340.71;105287;1277;22753;-76
2022/07/30 11:24:56;;;;;;;3.20;1.70;;;;;;;22.77;56.43;100339.83;105537;1278;22803;-74
2022/07/30 11:27:49;;;;;;;3.00;2.10;;;;;;;22.72;56.68;100338.67;105238;1278;25420;-76
2022/07/30 11:30:16;;;;;;;6.50;1.90;;;;;;;22.67;57.03;100341.16;105458;1278;22586;-76
2022/07/30 11:32:54;;;;;;;2.00;1.70;;;;;;;22.59;56.98;100341.63;105490;1277;22643;-76
2022/07/30 11:35:25;;;;;;;2.50;1.70;;;;;;;22.51;57.52;100341.70;105468;1281;23959;-77
2022/07/30 11:38:08;;;;;;;2.60;2.00;;;;;;;22.44;57.74;100344.66;105720;1274;25245;-76
2022/07/30 11:40:58;;;;;;;4.30;2.40;;;;;;;22.37;58.38;100341.64;105710;1274;25440;-77
2022/07/30 11:43:31;;;;;;;3.30;2.20;;;;;;;22.31;58.82;100337.35;105791;1274;22567;-77
2022/07/30 11:46:09;;;;;;;3.70;2.30;;;;;;;22.24;58.88;100338.31;105922;1274;22534;-76
2022/07/30 11:48:53;;;;;;;4.60;2.40;;;;;;;22.16;59.51;100337.34;105784;1273;22626;-76